Time;durP1;ratioP1;P1;durP2;ratioP2;P2;SDS_P1;SDS_P2;PMS_P1;PMS_P2;Temp;Humidity;BMP_temperature;BMP_pressure;BME280_temperature;BME280_humidity;BME280_pressure;Samples;Min_cycle;Max_cycle;Signal;HPM_P1;HPM_P2
2022/04/09 00:01:31;;;;;;;2.38;0.80;;;0.30;99.90;;;;;;5145866;27;20538;-61
2022/04/09 00:04:11;;;;;;;0.50;0.50;;;0.30;99.90;;;;;;5146068;27;20554;-61
2022/04/09 00:06:51;;;;;;;1.02;0.80;;;0.30;99.90;;;;;;5105621;27;20609;-61
2022/04/09 00:09:30;;;;;;;0.88;0.70;;;0.20;99.90;;;;;;5084182;27;21163;-60
2022/04/09 00:12:11;;;;;;;2.05;0.70;;;0.30;99.90;;;;;;5085153;27;20562;-61
2022/04/09 00:14:50;;;;;;;1.30;0.70;;;0.30;99.90;;;;;;5084661;27;20577;-61
2022/04/09 00:17:36;;;;;;;1.10;0.60;;;0.30;99.90;;;;;;5085485;27;20553;-61
2022/04/09 00:20:18;;;;;;;0.60;0.60;;;0.30;99.90;;;;;;5084756;27;20586;-61
2022/04/09 00:22:58;;;;;;;0.30;0.30;;;0.30;99.90;;;;;;5105699;27;20545;-61
2022/04/09 00:25:37;;;;;;;0.57;0.57;;;0.30;99.90;;;;;;5084434;27;20555;-61
2022/04/09 00:28:17;;;;;;;0.40;0.40;;;0.30;99.90;;;;;;5084940;27;20548;-62
2022/04/09 00:30:57;;;;;;;0.40;0.40;;;0.30;99.90;;;;;;5082494;28;20556;-61
2022/04/09 00:33:37;;;;;;;0.57;0.57;;;0.30;99.90;;;;;;5084584;27;20599;-61
2022/04/09 00:36:16;;;;;;;1.30;0.50;;;0.30;99.90;;;;;;5125340;27;20548;-61
2022/04/09 00:38:56;;;;;;;1.02;0.60;;;0.30;99.90;;;;;;5085243;28;20545;-61
2022/04/09 00:41:40;;;;;;;0.57;0.57;;;0.30;99.90;;;;;;5084956;28;20651;-61
2022/04/09 00:44:21;;;;;;;0.50;0.50;;;0.30;99.90;;;;;;5146519;27;20538;-61
2022/04/09 00:47:01;;;;;;;0.57;0.57;;;0.30;99.90;;;;;;5126542;27;20570;-61
2022/04/09 00:49:41;;;;;;;0.40;0.40;;;0.30;99.90;;;;;;5145646;27;21187;-61
2022/04/09 00:52:24;;;;;;;0.40;0.40;;;0.30;99.90;;;;;;5105463;27;20549;-61
2022/04/09 00:55:05;;;;;;;0.38;0.38;;;0.30;99.90;;;;;;5104532;27;20557;-61
2022/04/09 00:57:47;;;;;;;0.20;0.20;;;0.30;99.90;;;;;;5084905;27;20558;-61
2022/04/09 01:00:26;;;;;;;0.45;0.10;;;0.40;99.90;;;;;;5084302;28;20560;-61
2022/04/09 01:03:06;;;;;;;1.15;0.20;;;0.40;99.90;;;;;;5084719;27;20553;-61
2022/04/09 01:05:46;;;;;;;0.52;0.20;;;0.40;99.90;;;;;;5084235;27;20574;-61
2022/04/09 01:08:26;;;;;;;0.55;0.20;;;0.30;99.90;;;;;;5084755;27;20609;-61
2022/04/09 01:11:05;;;;;;;0.95;0.10;;;0.40;99.90;;;;;;5124686;27;20532;-61
2022/04/09 01:13:45;;;;;;;0.77;0.20;;;0.30;99.90;;;;;;5084380;27;20810;-61
2022/04/09 01:16:28;;;;;;;0.70;0.20;;;0.40;99.90;;;;;;5104974;27;20529;-61
2022/04/09 01:19:08;;;;;;;0.40;0.10;;;0.40;99.90;;;;;;5084762;27;20570;-60
2022/04/09 01:21:49;;;;;;;0.35;0.17;;;0.40;99.90;;;;;;5084913;28;20568;-60
2022/04/09 01:24:28;;;;;;;2.60;0.35;;;0.30;99.90;;;;;;5125455;27;21061;-61
2022/04/09 01:27:19;;;;;;;1.10;0.30;;;0.20;99.90;;;;;;5146385;27;20568;-61
2022/04/09 01:29:59;;;;;;;4.03;0.30;;;0.10;99.90;;;;;;5143711;27;20546;-61
2022/04/09 01:32:39;;;;;;;0.75;0.43;;;0.20;99.90;;;;;;5084962;27;20573;-61
2022/04/09 01:35:19;;;;;;;0.80;0.40;;;0.20;99.90;;;;;;5124743;27;20544;-61
2022/04/09 01:37:59;;;;;;;3.22;0.30;;;0.20;99.90;;;;;;5084943;27;20557;-61
2022/04/09 01:40:39;;;;;;;1.25;0.40;;;0.20;99.90;;;;;;5103987;27;21031;-61
2022/04/09 01:43:18;;;;;;;1.23;0.30;;;0.20;99.90;;;;;;5084750;27;20557;-61
2022/04/09 01:45:58;;;;;;;0.60;0.40;;;0.20;99.90;;;;;;5084398;27;20549;-61
2022/04/09 01:48:39;;;;;;;1.65;0.35;;;0.30;99.90;;;;;;5081625;28;20563;-61
2022/04/09 01:51:18;;;;;;;0.20;0.20;;;0.30;99.90;;;;;;5124092;27;20532;-61
2022/04/09 01:53:58;;;;;;;0.20;0.20;;;0.30;99.90;;;;;;5084379;27;21026;-61
2022/04/09 01:56:38;;;;;;;0.10;0.10;;;0.30;99.90;;;;;;5084568;27;20566;-61
2022/04/09 01:59:17;;;;;;;0.17;0.17;;;0.20;99.90;;;;;;5084501;27;20543;-61
2022/04/09 02:01:57;;;;;;;0.08;0.03;;;0.20;99.90;;;;;;5146448;27;20531;-61
2022/04/09 02:04:37;;;;;;;0.45;0.20;;;0.30;99.90;;;;;;5145357;27;20905;-60
2022/04/09 02:07:17;;;;;;;0.20;0.20;;;0.30;99.90;;;;;;5105289;27;21171;-61
2022/04/09 02:09:59;;;;;;;0.30;0.30;;;0.30;99.90;;;;;;5084175;28;20661;-61
2022/04/09 02:12:39;;;;;;;0.10;0.10;;;0.20;99.90;;;;;;5085022;27;20573;-61
2022/04/09 02:15:18;;;;;;;0.57;0.20;;;0.20;99.90;;;;;;5084501;27;21049;-61
2022/04/09 02:17:58;;;;;;;0.20;0.20;;;0.20;99.90;;;;;;5085098;27;21157;-61
2022/04/09 02:20:38;;;;;;;0.30;0.30;;;0.20;99.90;;;;;;5104698;27;20563;-61
2022/04/09 02:23:17;;;;;;;0.20;0.20;;;0.20;99.90;;;;;;5084857;27;20527;-61
2022/04/09 02:25:59;;;;;;;0.40;0.30;;;0.20;99.90;;;;;;5084661;27;20923;-61
2022/04/09 02:28:39;;;;;;;0.40;0.40;;;0.20;99.90;;;;;;5085226;27;20960;-61
2022/04/09 02:31:20;;;;;;;0.40;0.40;;;0.30;99.90;;;;;;5102882;27;20560;-61
2022/04/09 02:34:01;;;;;;;0.40;0.40;;;0.30;99.90;;;;;;5084651;27;21095;-60
2022/04/09 02:36:40;;;;;;;0.65;0.50;;;0.30;99.90;;;;;;5104904;27;20545;-61
2022/04/09 02:39:21;;;;;;;0.50;0.50;;;0.30;99.90;;;;;;5145467;27;21132;-61
2022/04/09 02:42:01;;;;;;;1.75;0.60;;;0.30;99.90;;;;;;5084893;27;20605;-61
2022/04/09 02:44:41;;;;;;;0.52;0.52;;;0.30;99.90;;;;;;5104386;27;20542;-61
2022/04/09 02:47:21;;;;;;;0.40;0.40;;;0.30;99.90;;;;;;5126074;27;20567;-61
2022/04/09 02:50:01;;;;;;;0.55;0.55;;;0.30;99.90;;;;;;5084080;27;20888;-61
2022/04/09 02:52:42;;;;;;;0.52;0.52;;;0.30;99.90;;;;;;5084873;27;20580;-61
2022/04/09 02:55:22;;;;;;;0.60;0.60;;;0.30;99.90;;;;;;5104607;27;20549;-61
2022/04/09 02:58:02;;;;;;;0.68;0.68;;;0.30;99.90;;;;;;5084883;27;20566;-61
2022/04/09 03:00:41;;;;;;;0.70;0.70;;;0.40;99.90;;;;;;5084191;27;20564;-61
2022/04/09 03:03:21;;;;;;;0.60;0.60;;;0.30;99.90;;;;;;5125331;27;21192;-60
2022/04/09 03:06:01;;;;;;;0.50;0.50;;;0.30;99.90;;;;;;5084784;27;21113;-61
2022/04/09 03:08:41;;;;;;;0.60;0.60;;;0.30;99.90;;;;;;5085039;27;20548;-60
2022/04/09 03:11:21;;;;;;;0.40;0.40;;;0.30;99.90;;;;;;5146053;27;20542;-61
2022/04/09 03:14:00;;;;;;;0.60;0.60;;;0.30;99.90;;;;;;5084348;27;20559;-61
2022/04/09 03:16:40;;;;;;;0.60;0.60;;;0.30;99.90;;;;;;5125068;27;21064;-61
2022/04/09 03:19:20;;;;;;;0.50;0.50;;;0.30;99.90;;;;;;5083845;27;20976;-60
2022/04/09 03:22:00;;;;;;;0.57;0.55;;;0.30;99.90;;;;;;5084917;27;21131;-61
2022/04/09 03:24:40;;;;;;;0.85;0.85;;;0.30;99.90;;;;;;5084519;28;20559;-60
2022/04/09 03:27:20;;;;;;;0.60;0.60;;;0.30;99.90;;;;;;5085437;27;20972;-61
2022/04/09 03:29:59;;;;;;;0.73;0.73;;;0.30;99.90;;;;;;5122262;27;21067;-61
2022/04/09 03:32:41;;;;;;;0.90;0.90;;;0.30;99.90;;;;;;5105467;27;20537;-61
2022/04/09 03:35:21;;;;;;;0.70;0.70;;;0.40;99.90;;;;;;5074419;27;20598;-61
2022/04/09 03:38:02;;;;;;;0.65;0.65;;;0.40;99.90;;;;;;5104323;27;20564;-60
2022/04/09 03:40:42;;;;;;;0.70;0.70;;;0.50;99.90;;;;;;5082527;27;20573;-60
2022/04/09 03:43:22;;;;;;;0.65;0.63;;;0.50;99.90;;;;;;5083674;27;20561;-61
2022/04/09 03:46:03;;;;;;;0.90;0.90;;;0.50;99.90;;;;;;5084105;27;20569;-61
2022/04/09 03:48:44;;;;;;;1.08;1.08;;;0.50;99.90;;;;;;5084028;27;20549;-61
2022/04/09 03:51:24;;;;;;;1.27;1.20;;;0.40;99.90;;;;;;5083922;27;20573;-61
2022/04/09 03:54:04;;;;;;;1.20;1.10;;;0.40;99.90;;;;;;5084450;27;20992;-61
2022/04/09 03:56:44;;;;;;;1.23;1.20;;;0.50;99.90;;;;;;5083809;27;21141;-61
2022/04/09 03:59:24;;;;;;;0.98;0.93;;;0.50;99.90;;;;;;5083390;27;20544;-61
2022/04/09 04:02:04;;;;;;;1.30;1.20;;;0.50;99.90;;;;;;5084267;27;20589;-60
2022/04/09 04:04:44;;;;;;;1.30;1.00;;;0.50;99.90;;;;;;5084690;28;20555;-60
2022/04/09 04:07:23;;;;;;;1.08;1.08;;;0.50;99.90;;;;;;5084397;28;21082;-61
2022/04/09 04:10:04;;;;;;;1.20;1.20;;;0.50;99.90;;;;;;5083095;27;21140;-61
2022/04/09 04:12:45;;;;;;;1.70;1.60;;;0.50;99.90;;;;;;5073371;27;20605;-61
2022/04/09 04:15:24;;;;;;;1.17;1.17;;;0.50;99.90;;;;;;5065249;27;20912;-61
2022/04/09 04:18:05;;;;;;;2.50;1.45;;;0.60;99.90;;;;;;5084193;27;20954;-61
2022/04/09 04:20:44;;;;;;;1.50;1.40;;;0.60;99.90;;;;;;5133884;27;20540;-61
2022/04/09 04:23:24;;;;;;;3.90;1.58;;;0.60;99.90;;;;;;5103470;27;20666;-61
2022/04/09 04:26:04;;;;;;;2.10;2.00;;;0.70;99.90;;;;;;5084433;27;20561;-61
2022/04/09 04:28:48;;;;;;;2.10;2.00;;;0.70;99.90;;;;;;5104883;27;20560;-61
2022/04/09 04:31:27;;;;;;;2.30;2.20;;;0.70;99.90;;;;;;5082440;28;20996;-61
2022/04/09 04:34:07;;;;;;;2.22;2.13;;;0.70;99.90;;;;;;5084233;27;20986;-61
2022/04/09 04:36:46;;;;;;;2.33;2.15;;;0.80;99.90;;;;;;5084484;27;20557;-61
2022/04/09 04:39:26;;;;;;;3.05;2.50;;;0.70;99.90;;;;;;5083695;27;20559;-60
2022/04/09 04:42:07;;;;;;;3.28;3.05;;;0.80;99.90;;;;;;5124973;27;20873;-61
2022/04/09 04:44:47;;;;;;;2.60;2.40;;;0.80;99.90;;;;;;5084169;27;20564;-61
2022/04/09 04:47:28;;;;;;;2.58;2.47;;;0.80;99.90;;;;;;5084850;27;20562;-60
2022/04/09 04:50:08;;;;;;;2.88;2.63;;;0.90;99.90;;;;;;5145434;27;20534;-61
2022/04/09 04:52:47;;;;;;;2.60;2.50;;;0.90;99.90;;;;;;5083576;27;20553;-61
2022/04/09 04:55:28;;;;;;;2.78;2.58;;;0.90;99.90;;;;;;5083672;28;21032;-60
2022/04/09 04:58:07;;;;;;;4.70;2.90;;;0.90;99.90;;;;;;5104650;27;21097;-61
2022/04/09 05:00:46;;;;;;;3.17;2.97;;;1.00;99.90;;;;;;5124650;27;20540;-61
2022/04/09 05:03:26;;;;;;;2.78;2.58;;;1.00;99.90;;;;;;5074066;27;20586;-61
2022/04/09 05:06:06;;;;;;;3.38;3.08;;;1.00;99.90;;;;;;5107036;27;20890;-60
2022/04/09 05:08:46;;;;;;;3.33;3.13;;;1.10;99.90;;;;;;5084834;28;21004;-61
2022/04/09 05:11:26;;;;;;;3.25;3.05;;;1.10;99.90;;;;;;5144599;27;20546;-61
2022/04/09 05:14:06;;;;;;;4.07;3.22;;;1.10;99.90;;;;;;5084248;27;20567;-61
2022/04/09 05:16:45;;;;;;;3.80;3.50;;;1.20;99.90;;;;;;5084054;27;20561;-61
2022/04/09 05:19:25;;;;;;;4.07;3.75;;;1.30;99.90;;;;;;5125210;27;21104;-61
2022/04/09 05:22:06;;;;;;;3.83;3.45;;;1.40;99.90;;;;;;5104180;27;21013;-61
2022/04/09 05:24:45;;;;;;;3.45;3.25;;;1.50;99.90;;;;;;5071350;27;21102;-61
2022/04/09 05:27:25;;;;;;;3.97;3.67;;;1.60;99.90;;;;;;5081509;27;20597;-62
2022/04/09 05:30:06;;;;;;;3.15;2.95;;;1.70;99.90;;;;;;5083048;27;20535;-62
2022/04/09 05:32:47;;;;;;;3.67;3.35;;;1.70;99.90;;;;;;5146163;27;20654;-61
2022/04/09 05:35:27;;;;;;;3.47;3.17;;;1.80;99.90;;;;;;5104325;27;20554;-61
2022/04/09 05:38:09;;;;;;;4.55;3.63;;;1.80;99.90;;;;;;5125072;27;21222;-61
2022/04/09 05:40:48;;;;;;;4.03;3.63;;;1.80;99.90;;;;;;5160195;27;20541;-61
2022/04/09 05:43:29;;;;;;;3.70;3.40;;;1.80;99.90;;;;;;5102993;27;20554;-61
2022/04/09 05:46:08;;;;;;;5.95;5.43;;;1.80;99.90;;;;;;5084561;28;20679;-60
2022/04/09 05:48:48;;;;;;;5.38;4.88;;;1.80;99.90;;;;;;5085311;27;20543;-61
2022/04/09 05:51:28;;;;;;;4.70;4.28;;;1.90;99.90;;;;;;5104853;27;20654;-60
2022/04/09 05:54:08;;;;;;;5.95;5.45;;;2.10;99.90;;;;;;5105939;27;20565;-59
2022/04/09 05:56:47;;;;;;;3.60;3.40;;;2.20;99.90;;;;;;5105299;27;20533;-61
2022/04/09 05:59:28;;;;;;;5.25;4.57;;;2.30;99.90;;;;;;5084606;27;20561;-61
2022/04/09 06:02:07;;;;;;;4.03;3.72;;;2.50;99.90;;;;;;5145783;27;20534;-61
2022/04/09 06:04:47;;;;;;;4.03;3.72;;;2.70;99.90;;;;;;5079598;27;21164;-61
2022/04/09 06:07:27;;;;;;;5.15;4.75;;;2.90;99.90;;;;;;5104482;27;20546;-60
2022/04/09 06:10:08;;;;;;;4.10;3.90;;;2.90;99.90;;;;;;5083814;27;20562;-60
2022/04/09 06:12:48;;;;;;;4.35;4.05;;;3.00;99.90;;;;;;5084844;27;20543;-61
2022/04/09 06:15:28;;;;;;;3.75;3.45;;;3.10;99.90;;;;;;5104474;27;20569;-61
2022/04/09 06:18:10;;;;;;;4.47;3.95;;;3.00;99.90;;;;;;5084779;27;20546;-60
2022/04/09 06:20:50;;;;;;;4.07;3.65;;;3.00;99.90;;;;;;5083953;27;20547;-62
2022/04/09 06:23:29;;;;;;;5.03;4.63;;;3.10;99.90;;;;;;5084261;27;20562;-60
2022/04/09 06:26:09;;;;;;;4.60;4.20;;;2.80;99.90;;;;;;5084406;27;20552;-60
2022/04/09 06:28:49;;;;;;;5.90;4.30;;;2.60;99.90;;;;;;5084151;28;20569;-61
2022/04/09 06:31:28;;;;;;;6.00;5.43;;;2.50;99.90;;;;;;5125161;27;21161;-62
2022/04/09 06:34:08;;;;;;;4.80;4.47;;;2.60;99.90;;;;;;5075653;27;20568;-63
2022/04/09 06:36:49;;;;;;;3.63;3.35;;;2.70;99.90;;;;;;5097384;27;20580;-63
2022/04/09 06:39:28;;;;;;;5.10;4.70;;;3.00;99.90;;;;;;5104787;27;20598;-63
2022/04/09 06:42:08;;;;;;;4.82;4.43;;;3.50;99.90;;;;;;5101305;27;20630;-64
2022/04/09 06:44:48;;;;;;;4.95;3.78;;;4.20;99.90;;;;;;5078722;27;20582;-63
2022/04/09 06:47:28;;;;;;;4.38;4.07;;;4.50;99.90;;;;;;5123577;27;20557;-63
2022/04/09 06:50:09;;;;;;;4.68;3.95;;;4.70;99.90;;;;;;5083465;27;20546;-63
2022/04/09 06:52:49;;;;;;;3.60;3.28;;;4.80;99.90;;;;;;5102205;27;21050;-63
2022/04/09 06:55:28;;;;;;;4.00;3.70;;;4.80;99.90;;;;;;5057094;27;20564;-63
2022/04/09 06:58:08;;;;;;;4.00;3.70;;;4.70;99.90;;;;;;5084208;28;20547;-63
2022/04/09 07:00:48;;;;;;;4.22;3.92;;;4.70;99.90;;;;;;5095951;27;20569;-63
2022/04/09 07:03:28;;;;;;;3.88;3.58;;;4.90;99.90;;;;;;5145850;27;20661;-63
2022/04/09 07:06:08;;;;;;;4.07;3.78;;;5.00;99.90;;;;;;5083388;27;20574;-63
2022/04/09 07:08:48;;;;;;;4.30;4.00;;;5.10;99.90;;;;;;5083262;27;21092;-63
2022/04/09 07:11:28;;;;;;;4.07;3.78;;;5.20;99.90;;;;;;5083954;27;20557;-63
2022/04/09 07:14:08;;;;;;;5.32;3.50;;;5.30;99.90;;;;;;5105502;27;20670;-61
2022/04/09 07:16:48;;;;;;;3.97;3.67;;;5.40;99.90;;;;;;5127256;27;20536;-63
2022/04/09 07:19:29;;;;;;;4.32;3.92;;;5.30;99.90;;;;;;5104717;27;20549;-64
2022/04/09 07:22:08;;;;;;;3.33;3.05;;;5.40;99.90;;;;;;5146536;27;20542;-62
2022/04/09 07:24:48;;;;;;;3.53;3.33;;;5.30;99.90;;;;;;5072523;27;20579;-61
2022/04/09 07:27:37;;;;;;;5.03;4.53;;;5.30;99.90;;;;;;5085047;28;20669;-61
2022/04/09 07:30:18;;;;;;;4.22;3.83;;;5.30;99.90;;;;;;5083615;27;20577;-60
2022/04/09 07:32:58;;;;;;;3.92;3.63;;;5.40;99.90;;;;;;5104548;27;20538;-61
2022/04/09 07:35:37;;;;;;;3.15;2.95;;;5.60;99.90;;;;;;5144266;27;20555;-61
2022/04/09 07:38:17;;;;;;;3.53;3.33;;;5.70;99.90;;;;;;5071869;27;20590;-61
2022/04/09 07:40:57;;;;;;;4.28;3.97;;;5.70;99.90;;;;;;5082981;28;20543;-61
2022/04/09 07:43:37;;;;;;;5.55;4.35;;;5.60;99.90;;;;;;5081987;27;20561;-61
2022/04/09 07:46:16;;;;;;;4.80;4.30;;;5.70;99.90;;;;;;5081866;27;20569;-61
2022/04/09 07:48:56;;;;;;;4.90;4.00;;;5.90;99.90;;;;;;5104855;27;20538;-60
2022/04/09 07:51:36;;;;;;;4.60;4.20;;;6.00;99.90;;;;;;5102993;27;21028;-60
2022/04/09 07:54:16;;;;;;;4.43;4.03;;;6.00;99.90;;;;;;5080370;27;20634;-61
2022/04/09 07:56:56;;;;;;;3.58;3.28;;;6.20;99.90;;;;;;5083835;28;20548;-61
2022/04/09 07:59:36;;;;;;;4.03;3.63;;;6.40;99.90;;;;;;5144899;27;20542;-60
2022/04/09 08:02:15;;;;;;;3.45;3.17;;;6.50;99.90;;;;;;5104919;27;20541;-61
2022/04/09 08:04:55;;;;;;;3.38;3.17;;;6.90;99.90;;;;;;5079572;27;20586;-60
2022/04/09 08:07:35;;;;;;;5.65;2.95;;;7.10;99.90;;;;;;5085113;27;21109;-62
2022/04/09 08:10:15;;;;;;;3.70;3.40;;;7.20;99.90;;;;;;5083278;27;20542;-61
2022/04/09 08:12:56;;;;;;;4.20;3.00;;;7.20;99.90;;;;;;5118683;27;20738;-61
2022/04/09 08:15:37;;;;;;;3.70;3.33;;;7.00;99.90;;;;;;5073385;27;20642;-61
2022/04/09 08:18:16;;;;;;;3.35;3.05;;;6.60;99.90;;;;;;5084450;27;20548;-61
2022/04/09 08:20:56;;;;;;;4.05;3.65;;;6.20;99.90;;;;;;5144472;27;20954;-61
2022/04/09 08:23:36;;;;;;;3.95;3.42;;;6.00;99.90;;;;;;5082035;27;20924;-61
2022/04/09 08:26:15;;;;;;;3.90;3.58;;;6.00;99.90;;;;;;5122602;27;20544;-61
2022/04/09 08:28:56;;;;;;;4.20;3.63;;;6.20;99.90;;;;;;5115612;27;21057;-61
2022/04/09 08:31:35;;;;;;;3.47;3.15;;;6.60;99.90;;;;;;5083620;27;21080;-61
2022/04/09 08:34:15;;;;;;;3.40;3.10;;;7.20;99.90;;;;;;5095742;27;20557;-61
2022/04/09 08:36:55;;;;;;;3.83;2.83;;;7.70;99.90;;;;;;5076923;27;20569;-61
2022/04/09 08:39:35;;;;;;;3.42;2.60;;;8.10;99.90;;;;;;5084059;27;20581;-61
2022/04/09 08:42:16;;;;;;;3.60;3.30;;;8.60;99.90;;;;;;5125338;27;21449;-60
2022/04/09 08:44:56;;;;;;;3.40;3.10;;;8.90;99.90;;;;;;5084355;27;20564;-62
2022/04/09 08:47:36;;;;;;;4.00;3.65;;;9.00;99.90;;;;;;5125736;27;20528;-62
2022/04/09 08:50:16;;;;;;;3.13;2.83;;;8.90;99.90;;;;;;5083860;27;20570;-61
2022/04/09 08:52:56;;;;;;;2.80;2.58;;;8.70;99.90;;;;;;5084667;28;20675;-60
2022/04/09 08:55:36;;;;;;;3.38;3.13;;;8.50;99.90;;;;;;5125464;27;20548;-59
2022/04/09 08:58:15;;;;;;;7.30;4.50;;;8.00;99.90;;;;;;5105477;27;20564;-60
2022/04/09 09:00:55;;;;;;;7.15;6.53;;;7.50;99.90;;;;;;5083939;27;20545;-61
2022/04/09 09:03:35;;;;;;;3.92;3.55;;;7.10;99.90;;;;;;5084779;28;20573;-60
2022/04/09 09:06:35;;;;;;;3.10;2.90;;;7.00;99.90;;;;;;5084886;27;21129;-61
2022/04/09 09:09:29;;;;;;;3.40;3.10;;;7.50;99.90;;;;;;5082064;27;20555;-61
2022/04/09 09:12:12;;;;;;;3.92;3.42;;;8.20;99.90;;;;;;5084569;27;20569;-61
2022/04/09 09:14:51;;;;;;;4.07;3.78;;;8.50;99.90;;;;;;5104482;27;20562;-61
2022/04/09 09:17:31;;;;;;;4.63;3.22;;;8.60;99.90;;;;;;5084179;27;20981;-61
2022/04/09 09:20:14;;;;;;;3.75;3.28;;;8.60;99.90;;;;;;5083400;28;20556;-60
2022/04/09 09:22:54;;;;;;;4.10;3.38;;;8.70;99.90;;;;;;5083866;28;20539;-60
2022/04/09 09:25:49;;;;;;;7.72;3.67;;;8.80;99.90;;;;;;5104256;27;20565;-59
2022/04/09 09:28:30;;;;;;;3.45;3.10;;;8.70;99.90;;;;;;5085340;28;20543;-58
2022/04/09 09:31:13;;;;;;;5.57;3.28;;;8.70;99.90;;;;;;5144896;27;20535;-60
2022/04/09 09:33:52;;;;;;;4.15;3.72;;;8.80;99.90;;;;;;5145162;27;21025;-60
2022/04/09 09:36:33;;;;;;;6.88;3.50;;;8.80;99.90;;;;;;5084269;28;20539;-61
2022/04/09 09:39:14;;;;;;;3.78;3.20;;;8.70;99.90;;;;;;5084232;27;20570;-58
2022/04/09 09:41:55;;;;;;;4.45;3.30;;;9.00;99.90;;;;;;5084338;27;20600;-59
2022/04/09 09:44:43;;;;;;;4.20;2.88;;;9.40;99.90;;;;;;5124481;27;20560;-60
2022/04/09 09:47:22;;;;;;;3.63;3.08;;;9.60;99.90;;;;;;5103279;27;20546;-60
2022/04/09 09:50:10;;;;;;;2.83;2.63;;;9.70;99.90;;;;;;5103882;27;20694;-58
2022/04/09 09:53:04;;;;;;;3.22;2.92;;;9.60;99.90;;;;;;5083957;27;20536;-60
2022/04/09 09:55:45;;;;;;;4.72;3.05;;;9.10;99.90;;;;;;5024117;28;20556;-60
2022/04/09 09:58:25;;;;;;;3.17;2.72;;;8.70;99.90;;;;;;5084564;27;20573;-60
2022/04/09 10:01:06;;;;;;;3.58;2.40;;;8.40;99.90;;;;;;5124412;27;20536;-60
2022/04/09 10:03:46;;;;;;;4.68;2.92;;;8.60;99.90;;;;;;5104801;27;20666;-60
2022/04/09 10:06:25;;;;;;;4.22;2.92;;;9.10;99.90;;;;;;5084476;28;20552;-61
2022/04/09 10:09:06;;;;;;;2.83;2.63;;;9.10;99.90;;;;;;5082625;27;20573;-60
2022/04/09 10:11:50;;;;;;;4.63;3.08;;;9.10;99.90;;;;;;5084740;27;20978;-60
2022/04/09 10:14:32;;;;;;;5.90;4.00;;;9.20;99.90;;;;;;5114264;27;20557;-60
2022/04/09 10:17:14;;;;;;;3.08;2.83;;;9.10;99.90;;;;;;5146158;27;20539;-60
2022/04/09 10:19:56;;;;;;;4.63;2.50;;;9.30;99.90;;;;;;5104518;27;20583;-60
2022/04/09 10:22:38;;;;;;;4.30;2.50;;;9.50;99.90;;;;;;5084999;27;20537;-60
2022/04/09 10:25:19;;;;;;;3.72;3.42;;;9.10;99.90;;;;;;5084463;27;20981;-60
2022/04/09 10:28:02;;;;;;;4.55;2.63;;;8.90;99.90;;;;;;5105389;27;20550;-60
2022/04/09 10:30:42;;;;;;;3.38;2.72;;;8.80;99.90;;;;;;5083597;27;21172;-60
2022/04/09 10:33:27;;;;;;;4.57;2.72;;;9.20;99.90;;;;;;5084719;27;20545;-60
2022/04/09 10:36:06;;;;;;;8.98;3.35;;;9.60;99.90;;;;;;5104780;27;20674;-61
2022/04/09 10:39:27;;;;;;;7.05;5.05;;;10.00;99.90;;;;;;5105015;27;20525;-61
2022/04/09 10:42:07;;;;;;;4.47;3.95;;;10.20;99.90;;;;;;5105340;27;20541;-59
2022/04/09 10:44:56;;;;;;;5.05;3.22;;;10.40;99.90;;;;;;5125307;27;21069;-63
2022/04/09 10:48:06;;;;;;;3.72;2.95;;;10.50;99.90;;;;;;5126033;27;20673;-63
2022/04/09 10:50:57;;;;;;;4.45;4.00;;;11.30;99.90;;;;;;5105363;27;20560;-58
2022/04/09 10:53:40;;;;;;;3.95;2.95;;;11.80;99.90;;;;;;5105155;27;20571;-63
2022/04/09 10:56:24;;;;;;;4.40;2.38;;;12.10;99.90;;;;;;5083941;27;20565;-63
2022/04/09 10:59:08;;;;;;;4.05;3.58;;;12.70;99.90;;;;;;5084667;27;20540;-62
2022/04/09 11:01:52;;;;;;;3.57;3.10;;;12.90;99.90;;;;;;5146596;27;21322;-61
2022/04/09 11:04:45;;;;;;;3.83;2.28;;;12.90;98.20;;;;;;5084825;28;20547;-61
2022/04/09 11:07:27;;;;;;;3.53;3.15;;;12.50;98.90;;;;;;5103372;27;20569;-61
2022/04/09 11:10:07;;;;;;;2.55;1.50;;;12.30;99.90;;;;;;5145891;27;20534;-62
2022/04/09 11:12:46;;;;;;;8.07;6.10;;;12.00;98.30;;;;;;5146562;27;20538;-61
2022/04/09 11:15:27;;;;;;;5.15;3.50;;;11.80;98.30;;;;;;5104626;27;20554;-61
2022/04/09 11:18:07;;;;;;;4.90;3.70;;;11.50;99.90;;;;;;5084762;28;21065;-61
2022/04/09 11:20:47;;;;;;;2.90;1.63;;;10.90;99.90;;;;;;5083884;27;20573;-61
2022/04/09 11:23:26;;;;;;;2.30;2.05;;;10.50;99.90;;;;;;5125139;27;20554;-61
2022/04/09 11:26:05;;;;;;;5.15;3.83;;;10.40;99.90;;;;;;5104865;27;20987;-61
2022/04/09 11:28:45;;;;;;;2.75;2.08;;;10.50;99.90;;;;;;5104496;27;21226;-61
2022/04/09 11:31:25;;;;;;;4.55;2.42;;;10.70;99.90;;;;;;5104489;27;20538;-61
2022/04/09 11:34:05;;;;;;;1.70;1.35;;;10.80;99.90;;;;;;5065509;27;20681;-61
2022/04/09 11:36:45;;;;;;;2.70;2.03;;;10.80;99.90;;;;;;5072274;28;20739;-61
2022/04/09 11:39:25;;;;;;;2.80;1.45;;;10.90;99.90;;;;;;5083050;28;21089;-61
2022/04/09 11:42:05;;;;;;;3.58;1.83;;;11.00;99.90;;;;;;5125826;27;20542;-61
2022/04/09 11:44:45;;;;;;;2.70;1.33;;;11.50;99.90;;;;;;5104866;27;20554;-61
2022/04/09 11:47:26;;;;;;;2.05;1.30;;;11.70;99.90;;;;;;5083657;28;20545;-61
2022/04/09 11:50:06;;;;;;;2.28;1.83;;;11.90;93.60;;;;;;5104531;27;20542;-61
2022/04/09 11:52:46;;;;;;;3.47;1.88;;;11.80;91.80;;;;;;5085008;28;20556;-61
2022/04/09 11:55:29;;;;;;;2.50;1.63;;;11.60;91.50;;;;;;5145495;27;20554;-61
2022/04/09 11:58:09;;;;;;;2.33;1.17;;;11.20;90.70;;;;;;5104845;27;20861;-61
2022/04/09 12:00:48;;;;;;;2.33;1.08;;;10.70;99.10;;;;;;5084044;27;20565;-61
2022/04/09 12:03:28;;;;;;;1.85;1.60;;;10.30;99.90;;;;;;5084807;28;21092;-61
2022/04/09 12:06:08;;;;;;;2.92;1.20;;;10.10;99.90;;;;;;5083888;28;20547;-61
2022/04/09 12:08:48;;;;;;;2.90;1.45;;;10.00;99.90;;;;;;5123981;27;20659;-61
2022/04/09 12:11:27;;;;;;;1.13;1.02;;;9.90;99.90;;;;;;5084129;28;20553;-61
2022/04/09 12:14:13;;;;;;;3.25;1.40;;;9.60;99.90;;;;;;5084426;28;20574;-61
2022/04/09 12:16:52;;;;;;;3.30;1.33;;;9.10;99.90;;;;;;5104134;27;20607;-61
2022/04/09 12:19:32;;;;;;;1.92;1.33;;;9.00;99.90;;;;;;5124765;27;20548;-61
2022/04/09 12:22:20;;;;;;;1.88;1.27;;;9.00;99.90;;;;;;5105183;27;20542;-61
2022/04/09 12:24:59;;;;;;;2.20;1.75;;;9.20;99.90;;;;;;5125201;27;20552;-61
2022/04/09 12:27:47;;;;;;;2.10;1.90;;;9.70;99.90;;;;;;5104916;27;20534;-61
2022/04/09 12:30:41;;;;;;;2.45;1.00;;;10.50;99.90;;;;;;5104076;27;20534;-61
2022/04/09 12:33:23;;;;;;;2.10;1.00;;;11.20;99.90;;;;;;5084536;28;20568;-61
2022/04/09 12:36:10;;;;;;;1.58;0.98;;;11.80;99.90;;;;;;5084299;27;20589;-62
2022/04/09 12:38:49;;;;;;;1.77;0.95;;;11.70;95.40;;;;;;5125675;27;20543;-61
2022/04/09 12:41:46;;;;;;;3.25;1.25;;;11.70;98.10;;;;;;5104800;27;20938;-61
2022/04/09 12:44:27;;;;;;;1.88;1.05;;;11.80;95.90;;;;;;5104931;27;20690;-61
2022/04/09 12:47:08;;;;;;;3.42;2.28;;;11.60;95.40;;;;;;5145915;27;20534;-61
2022/04/09 12:49:48;;;;;;;2.08;1.23;;;11.50;98.60;;;;;;5073436;28;20590;-61
2022/04/09 12:52:30;;;;;;;2.47;1.35;;;12.10;98.10;;;;;;5146064;27;20538;-62
2022/04/09 12:55:11;;;;;;;1.23;0.88;;;12.50;87.00;;;;;;5067908;27;20584;-61
2022/04/09 12:57:50;;;;;;;2.15;1.25;;;12.80;91.60;;;;;;5104192;27;21145;-61
2022/04/09 13:00:32;;;;;;;1.75;1.35;;;12.80;78.60;;;;;;5083926;27;20577;-61
2022/04/09 13:03:13;;;;;;;1.90;1.20;;;12.10;77.50;;;;;;5098037;22;20612;-59
2022/04/09 13:05:53;;;;;;;2.45;0.95;;;12.10;85.30;;;;;;5102819;27;20545;-58
2022/04/09 13:08:33;;;;;;;1.75;0.90;;;12.60;82.10;;;;;;5082842;27;20532;-58
2022/04/09 13:11:14;;;;;;;2.20;0.95;;;12.60;74.10;;;;;;5104076;27;20549;-59
2022/04/09 13:13:54;;;;;;;2.17;1.83;;;12.40;75.40;;;;;;5083489;28;20555;-58
2022/04/09 13:16:34;;;;;;;2.13;1.10;;;12.00;81.10;;;;;;5104849;27;21085;-58
2022/04/09 13:19:13;;;;;;;2.38;1.00;;;11.90;85.00;;;;;;5124234;27;20543;-59
2022/04/09 13:21:54;;;;;;;2.33;1.13;;;12.10;79.00;;;;;;5125507;27;21544;-59
2022/04/09 13:24:35;;;;;;;2.83;0.80;;;12.40;79.70;;;;;;5125081;27;20569;-59
2022/04/09 13:27:15;;;;;;;3.30;1.45;;;12.70;77.50;;;;;;5104836;27;20541;-59
2022/04/09 13:29:54;;;;;;;1.20;1.00;;;12.80;80.00;;;;;;5145421;27;20534;-59
2022/04/09 13:32:34;;;;;;;1.73;0.85;;;12.60;69.60;;;;;;5084583;27;20569;-58
2022/04/09 13:35:15;;;;;;;1.58;1.00;;;12.60;72.80;;;;;;5124692;27;20536;-59
2022/04/09 13:37:56;;;;;;;2.80;1.08;;;12.80;75.80;;;;;;5125211;27;20668;-58
2022/04/09 13:40:36;;;;;;;1.08;0.70;;;12.60;72.90;;;;;;5104044;27;20572;-59
2022/04/09 13:43:27;;;;;;;1.08;0.77;;;12.00;66.50;;;;;;5125228;27;20563;-60
2022/04/09 13:46:07;;;;;;;2.35;0.90;;;11.80;71.10;;;;;;5125410;27;20536;-59
2022/04/09 13:48:47;;;;;;;2.28;1.35;;;12.30;75.40;;;;;;5105820;27;21226;-59
2022/04/09 13:51:27;;;;;;;1.42;0.80;;;12.90;71.20;;;;;;5082904;28;20551;-59
2022/04/09 13:54:07;;;;;;;0.95;0.80;;;13.30;61.20;;;;;;5161082;27;21161;-59
2022/04/09 13:56:46;;;;;;;4.18;1.00;;;13.30;60.00;;;;;;5082552;28;20540;-60
2022/04/09 13:59:26;;;;;;;1.52;1.00;;;13.10;59.80;;;;;;5124551;27;20667;-62
2022/04/09 14:02:06;;;;;;;2.45;0.90;;;12.40;58.60;;;;;;5138778;27;20640;-59
2022/04/09 14:04:46;;;;;;;1.48;1.00;;;12.30;66.90;;;;;;5144933;27;20580;-59
2022/04/09 14:07:25;;;;;;;0.95;0.70;;;12.40;67.00;;;;;;5116497;27;21149;-61